createdAt,value
2023-03-29T00:00:00.824Z,4.5
2023-03-29T00:03:00.934Z,4.5
2023-03-29T00:06:00.828Z,4.5
2023-03-29T00:09:00.805Z,4.4
2023-03-29T00:12:00.808Z,4.4
2023-03-29T00:15:00.838Z,4.4
2023-03-29T00:18:00.913Z,4.4
2023-03-29T00:21:01.275Z,4.4
2023-03-29T00:24:00.844Z,4.4
2023-03-29T00:27:00.810Z,4.4
2023-03-29T00:30:00.884Z,4.4
2023-03-29T00:33:00.863Z,4.3
2023-03-29T00:36:01.045Z,4.3
2023-03-29T00:39:00.838Z,4.3
2023-03-29T00:42:00.827Z,4.3
2023-03-29T00:45:00.837Z,4.3
2023-03-29T00:48:00.923Z,4.3
2023-03-29T00:51:01.169Z,4.3
2023-03-29T00:54:00.796Z,4.3
2023-03-29T00:57:00.847Z,4.3
2023-03-29T01:00:00.820Z,4.3
2023-03-29T01:03:00.982Z,4.2
2023-03-29T01:06:00.791Z,4.2
2023-03-29T01:09:00.878Z,4.2
2023-03-29T01:12:00.815Z,4.2
2023-03-29T01:15:00.838Z,4.2
2023-03-29T01:18:00.869Z,4.2
2023-03-29T01:21:01.085Z,4.3
2023-03-29T01:24:00.791Z,4.3
2023-03-29T01:27:00.899Z,4.3
2023-03-29T01:30:00.876Z,4.3
2023-03-29T01:33:00.851Z,4.3
2023-03-29T01:36:00.819Z,4.3
2023-03-29T01:39:00.820Z,4.3
2023-03-29T01:42:00.801Z,4.3
2023-03-29T01:45:00.798Z,4.3
2023-03-29T01:48:00.925Z,4.3
2023-03-29T01:51:01.398Z,4.3
2023-03-29T01:54:00.812Z,4.3
2023-03-29T01:57:00.899Z,4.3
2023-03-29T02:00:00.863Z,4.2
2023-03-29T02:03:00.988Z,4.2
2023-03-29T02:06:00.817Z,4.2
2023-03-29T02:09:00.804Z,4.2
2023-03-29T02:12:00.813Z,4.2
2023-03-29T02:15:00.871Z,4.2
2023-03-29T02:18:00.938Z,4.2
2023-03-29T02:21:01.171Z,4.2
2023-03-29T02:24:00.796Z,4.2
2023-03-29T02:27:00.836Z,4.2
2023-03-29T02:30:00.855Z,4.2
2023-03-29T02:33:00.910Z,4.2
2023-03-29T02:36:00.905Z,4.7
2023-03-29T02:39:00.849Z,4.7
2023-03-29T02:42:00.803Z,4.7
2023-03-29T02:45:00.803Z,4.7
2023-03-29T02:48:00.853Z,4.7
2023-03-29T02:51:01.218Z,4.7
2023-03-29T02:54:00.816Z,4.7
2023-03-29T02:57:00.893Z,4.7
2023-03-29T03:00:00.847Z,4.7
2023-03-29T03:03:02.387Z,4.9
2023-03-29T03:06:00.791Z,4.9
2023-03-29T03:09:00.816Z,4.9
2023-03-29T03:12:00.835Z,4.9
2023-03-29T03:15:00.825Z,4.9
2023-03-29T03:18:00.881Z,4.9
2023-03-29T03:21:01.187Z,4.9
2023-03-29T03:24:00.789Z,5
2023-03-29T03:27:00.799Z,5
2023-03-29T03:30:00.897Z,5
2023-03-29T03:33:00.853Z,5
2023-03-29T03:36:00.887Z,5
2023-03-29T03:39:00.776Z,5
2023-03-29T03:42:00.843Z,5
2023-03-29T03:45:00.792Z,5
2023-03-29T03:48:00.948Z,5
2023-03-29T03:51:01.313Z,5
2023-03-29T03:54:00.851Z,5
2023-03-29T03:57:00.813Z,5
2023-03-29T04:00:00.912Z,5
2023-03-29T04:03:00.934Z,5
2023-03-29T04:06:00.817Z,5
2023-03-29T04:09:00.981Z,5
2023-03-29T04:12:00.843Z,5
2023-03-29T04:15:00.791Z,5
2023-03-29T04:18:00.966Z,5
2023-03-29T04:21:01.133Z,5
2023-03-29T04:24:00.804Z,5
2023-03-29T04:27:00.814Z,5
2023-03-29T04:30:00.818Z,5
2023-03-29T04:33:00.881Z,5
2023-03-29T04:36:00.966Z,5
2023-03-29T04:39:00.806Z,5
2023-03-29T04:42:00.804Z,5
2023-03-29T04:45:00.969Z,5
2023-03-29T04:48:01.024Z,5
2023-03-29T04:51:01.326Z,5
2023-03-29T04:54:00.782Z,5
2023-03-29T04:57:00.859Z,5
2023-03-29T05:00:00.874Z,5
2023-03-29T05:03:00.979Z,5
2023-03-29T05:06:00.864Z,5
2023-03-29T05:09:00.861Z,5
2023-03-29T05:12:00.873Z,5
2023-03-29T05:15:00.874Z,5
2023-03-29T05:18:00.922Z,5
2023-03-29T05:21:01.343Z,5
2023-03-29T05:24:00.894Z,5
2023-03-29T05:27:00.847Z,5
2023-03-29T05:30:00.913Z,5
2023-03-29T05:33:01.016Z,5
2023-03-29T05:36:00.970Z,5
2023-03-29T05:39:00.902Z,5
2023-03-29T05:42:00.865Z,5
2023-03-29T05:45:00.866Z,5
2023-03-29T05:48:00.992Z,5.1
2023-03-29T05:51:01.203Z,5.1
2023-03-29T05:54:00.848Z,5.1
2023-03-29T05:57:00.889Z,5.1
2023-03-29T06:00:00.934Z,5.1
2023-03-29T06:03:20.098Z,5.1
2023-03-29T06:06:00.998Z,5.1
2023-03-29T06:09:00.877Z,5.1
2023-03-29T06:12:00.894Z,5.1
2023-03-29T06:15:00.829Z,5.1
2023-03-29T06:18:00.968Z,5.1
2023-03-29T06:21:01.564Z,5.1
2023-03-29T06:24:00.831Z,5.1
2023-03-29T06:27:00.916Z,5.1
2023-03-29T06:30:00.942Z,5.1
2023-03-29T06:33:01.064Z,5.1
2023-03-29T06:36:00.929Z,5.1
2023-03-29T06:39:00.880Z,5.6
2023-03-29T06:42:13.288Z,5.6
2023-03-29T06:45:00.902Z,5.6
2023-03-29T06:48:00.883Z,5.6
2023-03-29T06:51:01.497Z,5.6
2023-03-29T06:54:01.185Z,5.6
2023-03-29T06:57:01.018Z,5.6
2023-03-29T07:00:01.431Z,5.6
2023-03-29T07:03:01.011Z,5.6
2023-03-29T07:06:00.858Z,5.6
2023-03-29T07:09:01.186Z,5.6
2023-03-29T07:12:00.907Z,5.6
2023-03-29T07:15:00.971Z,6.1
2023-03-29T07:18:00.943Z,6.1
2023-03-29T07:21:01.453Z,6.1
2023-03-29T07:24:00.834Z,6.1
2023-03-29T07:27:04.988Z,6.1
2023-03-29T07:30:00.966Z,6.1
2023-03-29T07:33:01.146Z,6.1
2023-03-29T07:36:00.930Z,6.6
2023-03-29T07:39:00.891Z,6.6
2023-03-29T07:42:00.795Z,6.6
2023-03-29T07:45:00.884Z,6.6
2023-03-29T07:48:00.953Z,6.6
2023-03-29T07:51:01.231Z,6.6
2023-03-29T07:54:00.913Z,6.6
2023-03-29T07:57:00.971Z,7.1
2023-03-29T08:00:00.996Z,7.1
2023-03-29T08:03:00.931Z,7.1
2023-03-29T08:06:00.888Z,7.1
2023-03-29T08:09:00.847Z,7.1
2023-03-29T08:12:00.859Z,7.1
2023-03-29T08:15:00.863Z,7.1
2023-03-29T08:18:00.938Z,7.6
2023-03-29T08:21:02.002Z,7.6
2023-03-29T08:24:00.907Z,7.6
2023-03-29T08:27:00.812Z,7.6
2023-03-29T08:30:00.858Z,7.6
2023-03-29T08:33:00.859Z,7.6
2023-03-29T08:36:00.991Z,7.6
2023-03-29T08:39:00.850Z,8.1
2023-03-29T08:42:00.847Z,8.1
2023-03-29T08:45:00.843Z,8.1
2023-03-29T08:48:00.882Z,8.1
2023-03-29T08:51:01.268Z,8.1
2023-03-29T08:54:00.872Z,8.1
2023-03-29T08:57:00.871Z,8.1
2023-03-29T09:00:00.919Z,8.1
2023-03-29T09:03:01.001Z,8.1
2023-03-29T09:06:00.940Z,8.1
2023-03-29T09:09:00.864Z,8.5
2023-03-29T09:12:00.903Z,8.5
2023-03-29T09:15:00.821Z,8.5
2023-03-29T09:18:00.919Z,8.5
2023-03-29T09:21:01.509Z,8.5
2023-03-29T09:24:00.955Z,8.5
2023-03-29T09:27:00.914Z,8.5
2023-03-29T09:30:00.895Z,8.5
2023-03-29T09:33:00.963Z,8.5
2023-03-29T09:36:01.008Z,8.5
2023-03-29T09:39:00.895Z,8.5
2023-03-29T09:42:00.875Z,8.5
2023-03-29T09:45:00.928Z,8.5
2023-03-29T09:48:00.963Z,8.5
2023-03-29T09:51:01.389Z,9
2023-03-29T09:54:00.977Z,9
2023-03-29T09:57:00.962Z,9
2023-03-29T10:00:01.076Z,9
2023-03-29T10:03:00.940Z,9
2023-03-29T10:06:00.954Z,9
2023-03-29T10:09:00.878Z,9
2023-03-29T10:12:00.855Z,9
2023-03-29T10:15:01.005Z,9
2023-03-29T10:18:01.003Z,9
2023-03-29T10:21:01.370Z,9
2023-03-29T10:24:00.898Z,9.5
2023-03-29T10:27:00.862Z,9.5
2023-03-29T10:30:00.939Z,9.5
2023-03-29T10:33:00.933Z,9.5
2023-03-29T10:36:00.997Z,9.5
2023-03-29T10:39:04.406Z,9.5
2023-03-29T10:42:00.907Z,9.5
2023-03-29T10:45:00.879Z,9.5
2023-03-29T10:48:00.959Z,9.5
2023-03-29T10:51:01.602Z,9.5
2023-03-29T10:54:00.853Z,10
2023-03-29T10:57:00.941Z,10
2023-03-29T11:00:01.011Z,10
2023-03-29T11:03:00.983Z,10
2023-03-29T11:06:00.853Z,10
2023-03-29T11:09:00.882Z,10
2023-03-29T11:12:15.897Z,10
2023-03-29T11:15:00.891Z,10.3
2023-03-29T11:18:00.992Z,10.3
2023-03-29T11:21:01.284Z,10.3
2023-03-29T11:24:00.894Z,10.3
2023-03-29T11:27:00.873Z,10.3
2023-03-29T11:30:00.958Z,10.8
2023-03-29T11:33:00.990Z,10.8
2023-03-29T11:36:01.119Z,10.8
2023-03-29T11:39:00.977Z,11
2023-03-29T11:42:00.895Z,11
2023-03-29T11:45:00.864Z,11
2023-03-29T11:48:01.009Z,11
2023-03-29T11:51:01.229Z,11
2023-03-29T11:54:00.938Z,11
2023-03-29T11:57:00.877Z,11
2023-03-29T12:00:00.984Z,11.6
2023-03-29T12:03:01.134Z,11.6
2023-03-29T12:06:00.902Z,11.6
2023-03-29T12:09:00.919Z,11.6
2023-03-29T12:12:00.901Z,11.6
2023-03-29T12:15:00.851Z,11.6
2023-03-29T12:18:01.083Z,11.9
2023-03-29T12:21:00.952Z,11.9
2023-03-29T12:24:00.872Z,11.9
2023-03-29T12:27:00.997Z,11.9
2023-03-29T12:30:01.033Z,11.9
2023-03-29T12:33:00.920Z,12.5
2023-03-29T12:36:01.146Z,12.5
2023-03-29T12:39:00.860Z,12.5
2023-03-29T12:42:00.886Z,12.5
2023-03-29T12:45:00.908Z,12.5
2023-03-29T12:48:00.997Z,12.5
2023-03-29T12:51:00.933Z,12.6
2023-03-29T12:54:00.922Z,12.6
2023-03-29T12:57:01.022Z,12.6
2023-03-29T13:00:01.058Z,12.6
2023-03-29T13:03:01.166Z,12.6
2023-03-29T13:06:01.270Z,12.6
2023-03-29T13:09:00.862Z,12.6
2023-03-29T13:12:00.942Z,12.6
2023-03-29T13:15:00.865Z,12.6
2023-03-29T13:18:00.981Z,12.6
2023-03-29T13:21:00.911Z,12.6
2023-03-29T13:24:00.869Z,12.6
2023-03-29T13:27:00.850Z,13
2023-03-29T13:30:00.967Z,13
2023-03-29T13:33:01.017Z,13
2023-03-29T13:36:01.362Z,13
2023-03-29T13:39:00.933Z,13
2023-03-29T13:42:00.862Z,13
2023-03-29T13:45:00.852Z,13
2023-03-29T13:48:06.129Z,13
2023-03-29T13:51:00.920Z,13
2023-03-29T13:54:00.941Z,13
2023-03-29T13:57:01.292Z,13
2023-03-29T14:00:00.943Z,13
2023-03-29T14:03:00.946Z,13
2023-03-29T14:06:01.391Z,13
2023-03-29T14:09:00.940Z,13
2023-03-29T14:12:00.954Z,13
2023-03-29T14:15:00.952Z,13
2023-03-29T14:18:01.241Z,13
2023-03-29T14:21:00.944Z,13
2023-03-29T14:24:00.837Z,13
2023-03-29T14:27:00.862Z,13
2023-03-29T14:30:00.914Z,13
2023-03-29T14:33:00.945Z,13
2023-03-29T14:36:01.400Z,13
2023-03-29T14:39:00.908Z,13
2023-03-29T14:42:00.892Z,13
2023-03-29T14:45:00.931Z,13
2023-03-29T14:48:00.963Z,13
2023-03-29T14:51:00.952Z,13
2023-03-29T14:54:00.921Z,13
2023-03-29T14:57:00.889Z,13
2023-03-29T15:00:00.932Z,13
2023-03-29T15:03:01.194Z,13
2023-03-29T15:06:01.138Z,13
2023-03-29T15:09:07.017Z,13
2023-03-29T15:12:00.875Z,13
2023-03-29T15:15:00.895Z,13
2023-03-29T15:18:01.010Z,13
2023-03-29T15:21:00.933Z,13
2023-03-29T15:24:01.766Z,13
2023-03-29T15:27:00.842Z,12.6
2023-03-29T15:30:00.964Z,12.6
2023-03-29T15:33:01.070Z,12.6
2023-03-29T15:36:01.474Z,12.6
2023-03-29T15:39:01.003Z,12.6
2023-03-29T15:42:00.885Z,12.6
2023-03-29T15:45:00.870Z,12.6
2023-03-29T15:48:00.952Z,12.6
2023-03-29T15:51:06.325Z,12.6
2023-03-29T15:54:00.986Z,12.6
2023-03-29T15:57:01.027Z,12.6
2023-03-29T16:00:00.931Z,12.6
2023-03-29T16:03:00.970Z,12.5
2023-03-29T16:06:01.403Z,12.5
2023-03-29T16:09:00.849Z,12.5
2023-03-29T16:12:00.895Z,12.5
2023-03-29T16:15:00.965Z,12.4
2023-03-29T16:18:00.940Z,12.4
2023-03-29T16:21:00.894Z,12.4
2023-03-29T16:24:00.870Z,12.4
2023-03-29T16:27:00.879Z,12.4
2023-03-29T16:30:00.850Z,12.4
2023-03-29T16:33:00.934Z,12.4
2023-03-29T16:36:01.277Z,12.4
2023-03-29T16:39:00.829Z,12.4
2023-03-29T16:42:00.848Z,12.4
2023-03-29T16:45:00.870Z,12.4
2023-03-29T16:48:01.815Z,12.4
2023-03-29T16:51:00.849Z,12.4
2023-03-29T16:54:00.978Z,12.5
2023-03-29T16:57:00.945Z,12.5
2023-03-29T17:00:00.889Z,12.5
2023-03-29T17:03:01.033Z,12.5
2023-03-29T17:06:01.345Z,12.5
2023-03-29T17:09:00.893Z,12.5
2023-03-29T17:12:00.865Z,12.5
2023-03-29T17:15:01.265Z,12.5
2023-03-29T17:18:00.899Z,12.5
2023-03-29T17:21:00.809Z,12.5
2023-03-29T17:24:00.837Z,12.5
2023-03-29T17:27:00.803Z,12.5
2023-03-29T17:30:00.900Z,12.5
2023-03-29T17:33:00.915Z,12.5
2023-03-29T17:36:01.465Z,12.5
2023-03-29T17:39:02.999Z,12.5
2023-03-29T17:42:00.861Z,12.5
2023-03-29T17:45:00.835Z,12.5
2023-03-29T17:48:01.339Z,12.5
2023-03-29T17:51:00.776Z,12.5
2023-03-29T17:54:00.825Z,12.5
2023-03-29T17:57:00.859Z,12.5
2023-03-29T18:00:00.922Z,12.5
2023-03-29T18:03:00.886Z,12.5
2023-03-29T18:06:00.957Z,12.2
2023-03-29T18:09:00.814Z,12.2
2023-03-29T18:12:00.843Z,12.2
2023-03-29T18:15:01.537Z,12.2
2023-03-29T18:18:00.934Z,12.2
2023-03-29T18:21:00.859Z,12.2
2023-03-29T18:24:00.837Z,12.2
2023-03-29T18:27:00.812Z,12.2
2023-03-29T18:30:00.932Z,12.2
2023-03-29T18:33:00.974Z,12.2
2023-03-29T18:36:01.036Z,12.2
2023-03-29T18:39:00.850Z,12.2
2023-03-29T18:42:00.856Z,11.7
2023-03-29T18:45:00.826Z,11.8
2023-03-29T18:48:00.872Z,11.6
2023-03-29T18:51:02.782Z,11.6
2023-03-29T18:54:00.821Z,11.6
2023-03-29T18:57:00.989Z,11.6
2023-03-29T19:00:00.869Z,11.6
2023-03-29T19:03:00.960Z,11.6
2023-03-29T19:06:01.203Z,11.6
2023-03-29T19:09:00.887Z,11.6
2023-03-29T19:12:00.788Z,11.6
2023-03-29T19:15:00.872Z,11.6
2023-03-29T19:18:00.908Z,11.6
2023-03-29T19:21:00.825Z,11.6
2023-03-29T19:24:00.864Z,11.6
2023-03-29T19:27:00.824Z,11.2
2023-03-29T19:30:00.824Z,11.2
2023-03-29T19:33:00.919Z,11.2
2023-03-29T19:36:01.058Z,11.2
2023-03-29T19:39:00.882Z,11.2
2023-03-29T19:42:00.769Z,11.2
2023-03-29T19:45:00.819Z,11.2
2023-03-29T19:48:03.705Z,11.2
2023-03-29T19:51:00.834Z,11.2
2023-03-29T19:54:00.829Z,11.2
2023-03-29T19:57:00.872Z,11.2
2023-03-29T20:00:00.934Z,11.2
2023-03-29T20:03:00.936Z,11.2
2023-03-29T20:06:00.818Z,11.2
2023-03-29T20:09:00.843Z,11
2023-03-29T20:12:00.799Z,11
2023-03-29T20:15:00.818Z,11
2023-03-29T20:18:00.949Z,11
2023-03-29T20:21:01.105Z,10.9
2023-03-29T20:24:00.795Z,10.9
2023-03-29T20:27:00.853Z,10.9
2023-03-29T20:30:00.784Z,10.9
2023-03-29T20:33:00.900Z,10.9
2023-03-29T20:36:01.196Z,10.9
2023-03-29T20:39:00.829Z,10.7
2023-03-29T20:42:00.777Z,10.7
2023-03-29T20:45:01.123Z,10.7
2023-03-29T20:48:00.899Z,10.7
2023-03-29T20:51:01.107Z,10.7
2023-03-29T20:54:00.811Z,10.6
2023-03-29T20:57:00.897Z,10.6
2023-03-29T21:00:00.804Z,10.6
2023-03-29T21:03:01.148Z,10.6
2023-03-29T21:06:00.818Z,10.6
2023-03-29T21:09:00.838Z,10.6
2023-03-29T21:12:00.845Z,10.6
2023-03-29T21:15:00.815Z,10.5
2023-03-29T21:18:00.917Z,10.4
2023-03-29T21:21:00.944Z,10.4
2023-03-29T21:24:00.817Z,10.4
2023-03-29T21:27:00.836Z,10.4
2023-03-29T21:30:00.839Z,10.4
2023-03-29T21:33:01.002Z,10.4
2023-03-29T21:36:00.900Z,10.4
2023-03-29T21:39:00.815Z,10.4
2023-03-29T21:42:00.796Z,10.4
2023-03-29T21:45:00.813Z,10.4
2023-03-29T21:48:00.936Z,10.4
2023-03-29T21:51:01.062Z,10.4
2023-03-29T21:54:00.825Z,10.4
2023-03-29T21:57:00.843Z,10.2
2023-03-29T22:00:01.452Z,10.2
2023-03-29T22:03:00.857Z,10.2
2023-03-29T22:06:00.834Z,10.2
2023-03-29T22:09:00.880Z,10.2
2023-03-29T22:12:00.900Z,10.2
2023-03-29T22:15:00.830Z,10.2
2023-03-29T22:18:00.876Z,10.1
2023-03-29T22:21:01.024Z,10.1
2023-03-29T22:24:00.856Z,10.1
2023-03-29T22:27:00.800Z,10.1
2023-03-29T22:30:00.853Z,10.1
2023-03-29T22:33:00.882Z,10.1
2023-03-29T22:36:00.889Z,10.1
2023-03-29T22:39:00.936Z,10.1
2023-03-29T22:42:00.795Z,10.1
2023-03-29T22:45:00.832Z,10.1
2023-03-29T22:48:00.896Z,10.1
2023-03-29T22:51:00.978Z,10
2023-03-29T22:54:00.808Z,10
2023-03-29T22:57:00.851Z,10
2023-03-29T23:00:00.853Z,10
2023-03-29T23:03:00.893Z,10
2023-03-29T23:06:00.819Z,10
2023-03-29T23:09:00.794Z,10
2023-03-29T23:12:00.800Z,10
2023-03-29T23:15:00.759Z,10
2023-03-29T23:18:00.902Z,9.9
2023-03-29T23:21:00.850Z,9.9
2023-03-29T23:24:00.787Z,9.9
2023-03-29T23:27:00.808Z,9.9
2023-03-29T23:30:00.837Z,9.9
2023-03-29T23:33:00.940Z,9.9
2023-03-29T23:36:00.856Z,9.9
2023-03-29T23:39:00.831Z,9.9
2023-03-29T23:42:00.839Z,9.9
2023-03-29T23:45:00.834Z,9.9
2023-03-29T23:48:00.852Z,9.9
2023-03-29T23:51:01.074Z,9.8
2023-03-29T23:54:00.845Z,9.8
2023-03-29T23:57:00.911Z,9.8
